createdAt,value
2019-03-15T00:00:55.675Z,75.98
2019-03-15T00:03:21.994Z,76.52
2019-03-15T00:05:48.643Z,76.70
2019-03-15T00:08:15.135Z,76.68
2019-03-15T00:10:41.498Z,76.95
2019-03-15T00:13:08.154Z,76.50
2019-03-15T00:15:34.553Z,76.70
2019-03-15T00:18:00.878Z,77.08
2019-03-15T00:20:27.264Z,76.11
2019-03-15T00:22:53.879Z,76.77
2019-03-15T00:25:20.274Z,76.63
2019-03-15T00:27:46.595Z,76.62
2019-03-15T00:30:13.696Z,76.53
2019-03-15T00:32:40.329Z,76.27
2019-03-15T00:35:07.214Z,76.60
2019-03-15T00:37:33.550Z,76.42
2019-03-15T00:39:59.837Z,75.90
2019-03-15T00:42:26.365Z,75.75
2019-03-15T00:44:52.773Z,75.92
2019-03-15T00:47:19.223Z,76.05
2019-03-15T00:49:45.610Z,76.79
2019-03-15T00:52:11.914Z,76.15
2019-03-15T00:54:38.438Z,76.20
2019-03-15T00:57:04.925Z,76.60
2019-03-15T00:59:31.435Z,76.97
2019-03-15T01:01:58.161Z,78.42
2019-03-15T01:04:24.773Z,77.74
2019-03-15T01:06:51.387Z,77.85
2019-03-15T01:09:17.771Z,78.21
2019-03-15T01:11:45.718Z,78.43
2019-03-15T01:14:12.245Z,81.38
2019-03-15T01:16:38.578Z,79.75
2019-03-15T01:19:05.069Z,78.56
2019-03-15T01:21:31.391Z,78.95
2019-03-15T01:23:57.902Z,78.98
2019-03-15T01:26:24.295Z,79.17
2019-03-15T01:28:50.662Z,78.90
2019-03-15T01:31:17.175Z,79.50
2019-03-15T01:33:43.613Z,79.22
2019-03-15T01:36:09.996Z,78.69
2019-03-15T01:38:36.324Z,79.03
2019-03-15T01:41:02.613Z,79.15
2019-03-15T01:43:28.950Z,79.08
2019-03-15T01:45:55.881Z,79.20
2019-03-15T01:48:22.270Z,78.71
2019-03-15T01:50:48.671Z,79.36
2019-03-15T01:53:15.186Z,79.49
2019-03-15T01:55:41.639Z,79.16
2019-03-15T01:58:08.127Z,79.59
2019-03-15T02:00:34.726Z,79.75
2019-03-15T02:03:02.391Z,79.54
2019-03-15T02:05:29.323Z,79.11
2019-03-15T02:07:55.706Z,79.12
2019-03-15T02:10:22.628Z,79.33
2019-03-15T02:12:49.178Z,79.31
2019-03-15T02:15:15.703Z,79.20
2019-03-15T02:17:42.266Z,79.12
2019-03-15T02:20:09.191Z,79.62
2019-03-15T02:22:35.746Z,79.77
2019-03-15T02:25:02.542Z,80.03
2019-03-15T02:27:28.987Z,80.03
2019-03-15T02:29:55.510Z,80.20
2019-03-15T02:32:21.914Z,79.99
2019-03-15T02:34:48.321Z,79.88
2019-03-15T02:37:14.720Z,80.22
2019-03-15T02:39:41.225Z,80.18
2019-03-15T02:42:07.726Z,79.93
2019-03-15T02:44:34.153Z,80.40
2019-03-15T02:47:00.606Z,80.41
2019-03-15T02:49:27.067Z,80.60
2019-03-15T02:51:53.532Z,80.28
2019-03-15T02:54:21.722Z,80.10
2019-03-15T02:56:48.062Z,80.30
2019-03-15T02:59:14.702Z,80.50
2019-03-15T03:01:41.211Z,80.88
2019-03-15T03:04:08.117Z,80.65
2019-03-15T03:06:34.979Z,81.37
2019-03-15T03:09:01.402Z,81.22
2019-03-15T03:11:27.785Z,81.22
2019-03-15T03:13:54.233Z,81.47
2019-03-15T03:16:20.719Z,81.18
2019-03-15T03:18:47.107Z,81.15
2019-03-15T03:21:15.153Z,81.31
2019-03-15T03:23:41.608Z,81.40
2019-03-15T03:26:08.051Z,81.13
2019-03-15T03:28:34.431Z,81.26
2019-03-15T03:31:00.934Z,81.07
2019-03-15T03:33:27.496Z,81.15
2019-03-15T03:35:53.827Z,81.17
2019-03-15T03:38:20.394Z,81.06
2019-03-15T03:40:46.764Z,81.01
2019-03-15T03:43:13.116Z,80.87
2019-03-15T03:45:39.402Z,80.98
2019-03-15T03:48:05.871Z,80.92
2019-03-15T03:50:32.307Z,81.03
2019-03-15T03:52:59.078Z,80.67
2019-03-15T03:55:25.839Z,80.82
2019-03-15T03:57:52.331Z,80.89
2019-03-15T04:00:18.887Z,80.90
2019-03-15T04:02:45.416Z,81.10
2019-03-15T04:05:12.143Z,81.01
2019-03-15T04:07:38.780Z,81.03
2019-03-15T04:10:08.823Z,81.16
2019-03-15T04:12:35.316Z,81.17
2019-03-15T04:15:04.306Z,81.17
2019-03-15T04:17:30.999Z,81.25
2019-03-15T04:19:57.284Z,81.44
2019-03-15T04:22:23.821Z,81.53
2019-03-15T04:24:50.305Z,81.60
2019-03-15T04:27:16.755Z,81.70
2019-03-15T04:29:43.198Z,81.57
2019-03-15T04:32:09.628Z,81.78
2019-03-15T04:34:35.916Z,81.85
2019-03-15T04:37:02.489Z,81.87
2019-03-15T04:39:28.873Z,81.56
2019-03-15T04:41:55.399Z,81.58
2019-03-15T04:56:36.535Z,81.60
2019-03-15T04:59:03.050Z,81.80
2019-03-15T05:01:29.967Z,81.76
2019-03-15T05:03:56.587Z,81.54
2019-03-15T05:06:23.241Z,81.60
2019-03-15T05:08:49.635Z,81.57
2019-03-15T05:11:16.199Z,81.59
2019-03-15T05:13:42.845Z,81.41
2019-03-15T05:16:09.693Z,81.53
2019-03-15T05:18:36.447Z,81.52
2019-03-15T05:21:02.992Z,81.70
2019-03-15T05:23:29.506Z,81.61
2019-03-15T05:25:56.075Z,81.58
2019-03-15T05:28:22.568Z,81.64
2019-03-15T05:30:49.104Z,81.65
2019-03-15T05:33:15.592Z,81.67
2019-03-15T05:35:42.004Z,81.87
2019-03-15T05:38:08.650Z,81.97
2019-03-15T05:40:35.055Z,82.12
2019-03-15T05:43:01.470Z,82.21
2019-03-15T05:45:28.463Z,82.42
2019-03-15T05:47:55.671Z,82.53
2019-03-15T05:50:22.272Z,82.62
2019-03-15T05:52:49.131Z,82.77
2019-03-15T05:55:15.582Z,82.33
2019-03-15T05:57:42.019Z,82.47
2019-03-15T06:00:13.878Z,82.68
2019-03-15T06:02:40.712Z,82.55
2019-03-15T06:05:08.883Z,82.68
2019-03-15T06:07:35.718Z,82.74
2019-03-15T06:10:03.175Z,82.88
2019-03-15T06:12:29.695Z,82.84
2019-03-15T06:14:56.145Z,83.11
2019-03-15T06:17:23.082Z,83.26
2019-03-15T06:19:49.486Z,82.68
2019-03-15T06:22:16.178Z,82.69
2019-03-15T06:24:42.779Z,82.28
2019-03-15T06:27:09.414Z,82.16
2019-03-15T06:29:35.883Z,82.22
2019-03-15T06:32:02.393Z,82.40
2019-03-15T06:34:28.955Z,82.31
2019-03-15T06:36:55.577Z,82.17
2019-03-15T06:39:22.200Z,82.10
2019-03-15T06:41:48.626Z,82.10
2019-03-15T06:44:15.052Z,82.26
2019-03-15T06:46:41.353Z,82.04
2019-03-15T06:49:07.860Z,82.54
2019-03-15T06:51:34.293Z,82.55
2019-03-15T06:54:10.803Z,82.66
2019-03-15T06:56:29.154Z,82.37
2019-03-15T06:58:55.587Z,82.54
2019-03-15T07:01:21.868Z,82.68
2019-03-15T07:03:48.754Z,82.60
2019-03-15T07:06:15.357Z,82.61
2019-03-15T07:08:41.984Z,82.66
2019-03-15T07:11:08.364Z,82.58
2019-03-15T07:13:34.735Z,82.52
2019-03-15T07:16:01.127Z,82.23
2019-03-15T07:18:27.615Z,82.28
2019-03-15T07:20:54.206Z,82.02
2019-03-15T07:23:20.505Z,82.24
2019-03-15T07:25:47.015Z,82.88
2019-03-15T07:28:13.366Z,82.52
2019-03-15T07:30:39.749Z,81.99
2019-03-15T07:33:06.319Z,82.03
2019-03-15T07:35:33.520Z,81.64
2019-03-15T07:38:00.188Z,82.32
2019-03-15T07:40:26.604Z,82.89
2019-03-15T07:42:53.072Z,82.74
2019-03-15T07:45:19.679Z,82.50
2019-03-15T07:47:46.065Z,81.71
2019-03-15T07:50:14.758Z,81.09
2019-03-15T07:52:41.339Z,80.63
2019-03-15T07:55:08.695Z,80.68
2019-03-15T07:57:35.010Z,78.61
2019-03-15T08:00:03.351Z,75.89
2019-03-15T08:02:29.648Z,76.34
2019-03-15T08:04:56.189Z,76.17
2019-03-15T08:07:35.550Z,75.06
2019-03-15T08:09:51.268Z,75.84
2019-03-15T08:12:17.818Z,74.71
2019-03-15T08:14:44.148Z,74.71
2019-03-15T08:17:10.708Z,74.72
2019-03-15T08:19:37.161Z,73.42
2019-03-15T08:22:03.578Z,74.09
2019-03-15T08:24:29.978Z,74.21
2019-03-15T08:26:56.479Z,72.98
2019-03-15T08:29:23.055Z,73.02
2019-03-15T08:31:49.508Z,72.23
2019-03-15T08:34:15.875Z,71.81
2019-03-15T08:36:42.379Z,71.94
2019-03-15T08:39:08.769Z,70.23
2019-03-15T08:41:35.094Z,70.46
2019-03-15T08:44:01.788Z,71.05
2019-03-15T08:46:28.176Z,69.15
2019-03-15T08:48:54.606Z,69.07
2019-03-15T08:51:21.145Z,69.07
2019-03-15T08:53:47.816Z,68.24
2019-03-15T08:56:14.771Z,69.32
2019-03-15T08:58:41.324Z,69.00
2019-03-15T09:01:10.778Z,68.45
2019-03-15T09:03:36.470Z,68.38
2019-03-15T09:06:03.052Z,67.25
2019-03-15T09:08:29.884Z,67.23
2019-03-15T09:10:56.384Z,67.48
2019-03-15T09:13:22.988Z,67.28
2019-03-15T09:15:49.475Z,64.97
2019-03-15T09:18:15.905Z,65.39
2019-03-15T09:20:42.367Z,63.82
2019-03-15T09:23:08.663Z,65.00
2019-03-15T09:25:35.100Z,63.48
2019-03-15T09:28:01.791Z,64.80
2019-03-15T09:30:28.818Z,65.66
2019-03-15T09:32:55.219Z,65.55
2019-03-15T09:35:21.727Z,64.65
2019-03-15T09:37:48.388Z,65.86
2019-03-15T09:40:15.175Z,65.53
2019-03-15T09:42:41.616Z,65.78
2019-03-15T09:45:12.114Z,65.77
2019-03-15T09:47:38.399Z,66.15
2019-03-15T09:50:21.216Z,66.34
2019-03-15T09:52:37.602Z,65.68
2019-03-15T09:55:12.088Z,67.40
2019-03-15T09:57:38.569Z,67.49
2019-03-15T10:00:15.847Z,64.72
2019-03-15T10:02:42.702Z,67.23
2019-03-15T10:05:11.394Z,69.04
2019-03-15T10:07:39.002Z,69.18
2019-03-15T10:10:18.909Z,70.24
2019-03-15T10:12:45.927Z,70.65
2019-03-15T10:15:13.853Z,70.59
2019-03-15T10:17:41.016Z,71.88
2019-03-15T10:20:12.377Z,71.30
2019-03-15T10:22:37.979Z,70.77
2019-03-15T10:25:13.147Z,70.92
2019-03-15T10:27:39.764Z,68.96
2019-03-15T10:30:17.489Z,70.00
2019-03-15T10:32:44.300Z,69.53
2019-03-15T10:35:10.905Z,70.19
2019-03-15T10:37:37.334Z,71.02
2019-03-15T10:40:09.480Z,71.00
2019-03-15T10:42:36.164Z,71.69
2019-03-15T10:45:06.794Z,71.55
2019-03-15T10:47:33.191Z,72.53
2019-03-15T10:49:59.619Z,72.17
2019-03-15T10:52:26.118Z,72.52
2019-03-15T10:54:52.842Z,72.15
2019-03-15T10:57:19.244Z,72.00
2019-03-15T10:59:45.725Z,72.24
2019-03-15T11:02:12.396Z,72.48
2019-03-15T11:04:38.978Z,73.12
2019-03-15T11:07:05.504Z,73.69
2019-03-15T11:09:31.943Z,73.72
2019-03-15T11:11:58.400Z,73.75
2019-03-15T11:14:24.887Z,74.16
2019-03-15T11:16:51.440Z,74.54
2019-03-15T11:19:17.838Z,74.82
2019-03-15T11:21:44.520Z,75.54
2019-03-15T11:24:10.905Z,76.17
2019-03-15T11:26:37.629Z,76.54
2019-03-15T11:29:04.071Z,75.97
2019-03-15T11:31:30.503Z,75.46
2019-03-15T11:33:57.003Z,75.19
2019-03-15T11:36:23.527Z,74.53
2019-03-15T11:38:49.928Z,72.05
2019-03-15T11:41:16.395Z,70.64
2019-03-15T11:43:42.867Z,69.65
2019-03-15T11:46:09.474Z,70.46
2019-03-15T11:48:36.210Z,70.50
2019-03-15T11:51:02.712Z,70.06
2019-03-15T11:53:29.223Z,70.43
2019-03-15T11:55:55.580Z,70.21
2019-03-15T11:58:21.942Z,67.69
2019-03-15T12:00:48.364Z,68.24
2019-03-15T12:03:14.820Z,66.71
2019-03-15T12:05:41.255Z,65.82
2019-03-15T12:08:07.699Z,66.25
2019-03-15T12:10:34.135Z,66.47
2019-03-15T12:13:00.589Z,66.02
2019-03-15T12:15:26.983Z,65.96
2019-03-15T12:17:53.607Z,67.26
2019-03-15T12:20:20.054Z,66.12
2019-03-15T12:22:46.483Z,65.64
2019-03-15T12:25:13.003Z,65.29
2019-03-15T12:27:39.731Z,64.82
2019-03-15T12:30:14.082Z,64.37
2019-03-15T12:32:40.480Z,64.33
2019-03-15T12:35:15.336Z,63.21
2019-03-15T12:37:41.821Z,63.02
2019-03-15T12:40:17.542Z,63.59
2019-03-15T12:42:44.479Z,63.13
2019-03-15T12:45:12.507Z,62.82
2019-03-15T12:47:38.836Z,63.91
2019-03-15T12:50:08.439Z,64.04
2019-03-15T12:52:46.589Z,62.19
2019-03-15T12:55:06.587Z,60.62
2019-03-15T12:57:32.930Z,62.40
2019-03-15T12:59:59.298Z,61.08
2019-03-15T13:02:25.687Z,62.04
2019-03-15T13:04:52.281Z,61.40
2019-03-15T13:07:19.011Z,60.68
2019-03-15T13:09:45.412Z,61.06
2019-03-15T13:12:12.093Z,60.09
2019-03-15T13:14:38.731Z,60.75
2019-03-15T13:17:05.156Z,60.82
2019-03-15T13:19:31.456Z,58.91
2019-03-15T13:21:57.928Z,59.89
2019-03-15T13:24:24.324Z,59.57
2019-03-15T13:26:51.020Z,60.12
2019-03-15T13:29:17.635Z,59.51
2019-03-15T13:31:43.929Z,59.92
2019-03-15T13:34:10.322Z,60.18
2019-03-15T13:36:36.850Z,59.46
2019-03-15T13:39:05.061Z,60.07
2019-03-15T13:41:31.513Z,59.54
2019-03-15T13:43:57.794Z,59.53
2019-03-15T13:46:24.614Z,59.68
2019-03-15T13:48:50.911Z,57.80
2019-03-15T13:51:17.545Z,58.26
2019-03-15T13:53:44.016Z,56.94
2019-03-15T13:56:10.536Z,58.71
2019-03-15T13:58:37.179Z,56.59
2019-03-15T14:01:03.607Z,57.61
2019-03-15T14:03:29.994Z,56.38
2019-03-15T14:05:56.688Z,56.93
2019-03-15T14:08:23.110Z,57.44
2019-03-15T14:10:49.991Z,57.47
2019-03-15T14:13:16.533Z,57.31
2019-03-15T14:15:42.928Z,56.69
2019-03-15T14:18:09.556Z,56.72
2019-03-15T14:20:36.146Z,59.55
2019-03-15T14:23:02.845Z,58.54
2019-03-15T14:25:29.394Z,58.82
2019-03-15T14:27:55.832Z,57.22
2019-03-15T14:30:22.216Z,60.11
2019-03-15T14:32:49.213Z,60.63
2019-03-15T14:35:15.931Z,61.41
2019-03-15T14:37:42.797Z,60.34
2019-03-15T14:40:11.135Z,61.27
2019-03-15T14:42:37.801Z,62.04
2019-03-15T14:45:09.166Z,62.09
2019-03-15T14:47:35.496Z,63.01
2019-03-15T14:50:05.695Z,62.59
2019-03-15T14:52:36.016Z,63.03
2019-03-15T14:55:08.095Z,63.46
2019-03-15T14:57:34.719Z,63.49
2019-03-15T15:00:01.109Z,64.23
2019-03-15T15:02:27.439Z,63.46
2019-03-15T15:04:53.901Z,64.35
2019-03-15T15:07:20.251Z,64.24
2019-03-15T15:09:47.636Z,64.45
2019-03-15T15:12:14.281Z,64.47
2019-03-15T15:14:40.569Z,65.06
2019-03-15T15:17:07.355Z,64.43
2019-03-15T15:19:33.946Z,64.22
2019-03-15T15:22:00.582Z,64.55
2019-03-15T15:24:26.979Z,64.25
2019-03-15T15:26:53.380Z,63.91
2019-03-15T15:29:21.998Z,63.49
2019-03-15T15:31:48.164Z,63.71
2019-03-15T15:34:14.584Z,63.29
2019-03-15T15:36:41.333Z,63.30
2019-03-15T15:39:08.037Z,63.20
2019-03-15T15:41:34.462Z,63.45
2019-03-15T15:44:01.992Z,64.33
2019-03-15T15:46:28.621Z,64.45
2019-03-15T15:48:54.903Z,63.84
2019-03-15T15:51:22.188Z,63.91
2019-03-15T15:53:49.180Z,63.43
2019-03-15T15:56:15.647Z,63.84
2019-03-15T15:58:42.402Z,63.52
2019-03-15T16:01:09.038Z,62.28
2019-03-15T16:03:35.463Z,62.45
2019-03-15T16:06:01.987Z,62.42
2019-03-15T16:08:28.424Z,63.13
2019-03-15T16:10:54.813Z,62.73
2019-03-15T16:13:21.836Z,63.20
2019-03-15T16:15:48.352Z,63.45
2019-03-15T16:18:16.527Z,62.95
2019-03-15T16:20:42.947Z,63.24
2019-03-15T16:23:09.403Z,63.64
2019-03-15T16:25:35.811Z,63.16
2019-03-15T16:28:02.215Z,63.79
2019-03-15T16:30:28.731Z,63.85
2019-03-15T16:32:55.335Z,62.15
2019-03-15T16:35:21.742Z,63.46
2019-03-15T16:37:48.320Z,63.61
2019-03-15T16:40:15.342Z,63.53
2019-03-15T16:42:41.874Z,63.07
2019-03-15T16:45:16.283Z,63.78
2019-03-15T16:47:42.733Z,64.13
2019-03-15T16:50:11.528Z,64.36
2019-03-15T16:52:37.955Z,64.90
2019-03-15T16:55:08.523Z,64.90
2019-03-15T16:57:35.248Z,65.40
2019-03-15T17:00:02.161Z,65.58
2019-03-15T17:02:28.722Z,65.84
2019-03-15T17:04:55.004Z,65.83
2019-03-15T17:07:21.334Z,66.05
2019-03-15T17:09:47.863Z,66.39
2019-03-15T17:12:14.381Z,66.45
2019-03-15T17:14:40.702Z,66.74
2019-03-15T17:17:07.156Z,66.96
2019-03-15T17:19:33.643Z,66.91
2019-03-15T17:21:59.962Z,67.09
2019-03-15T17:24:26.486Z,67.42
2019-03-15T17:26:53.024Z,67.35
2019-03-15T17:29:19.600Z,67.45
2019-03-15T17:31:46.104Z,67.49
2019-03-15T17:34:12.519Z,67.48
2019-03-15T17:36:38.974Z,67.16
2019-03-15T17:39:06.014Z,66.96
2019-03-15T17:41:32.421Z,66.91
2019-03-15T17:43:58.883Z,66.74
2019-03-15T17:46:25.221Z,66.78
2019-03-15T17:48:51.749Z,66.79
2019-03-15T17:51:20.725Z,66.62
2019-03-15T17:53:46.590Z,66.42
2019-03-15T17:56:13.081Z,66.64
2019-03-15T17:58:39.504Z,66.53
2019-03-15T18:01:05.936Z,66.67
2019-03-15T18:03:32.353Z,66.96
2019-03-15T18:05:58.864Z,66.90
2019-03-15T18:08:25.283Z,67.15
2019-03-15T18:10:51.798Z,67.36
2019-03-15T18:13:18.415Z,67.63
2019-03-15T18:15:44.808Z,67.72
2019-03-15T18:18:11.341Z,67.78
2019-03-15T18:20:37.829Z,67.90
2019-03-15T18:23:04.595Z,67.57
2019-03-15T18:25:56.350Z,67.74
2019-03-15T18:28:22.739Z,67.17
2019-03-15T18:30:49.083Z,67.68
2019-03-15T18:33:15.397Z,67.34
2019-03-15T18:35:41.936Z,67.02
2019-03-15T18:38:08.240Z,67.05
2019-03-15T18:40:34.660Z,66.91
2019-03-15T18:43:01.535Z,66.54
2019-03-15T18:45:28.058Z,66.56
2019-03-15T18:47:54.490Z,66.93
2019-03-15T18:50:28.823Z,66.64
2019-03-15T18:52:55.523Z,66.77
2019-03-15T18:55:21.954Z,66.84
2019-03-15T18:57:48.631Z,67.02
2019-03-15T19:00:23.164Z,66.96
2019-03-15T19:02:49.781Z,67.26
2019-03-15T19:05:16.239Z,67.62
2019-03-15T19:07:43.001Z,67.12
2019-03-15T19:10:13.969Z,67.86
2019-03-15T19:12:40.381Z,67.87
2019-03-15T19:15:16.334Z,68.05
2019-03-15T19:17:42.745Z,68.30
2019-03-15T19:20:13.172Z,68.49
2019-03-15T19:22:39.675Z,69.25
2019-03-15T19:25:08.839Z,69.52
2019-03-15T19:27:35.124Z,70.35
2019-03-15T19:30:03.006Z,70.88
2019-03-15T19:32:29.383Z,71.47
2019-03-15T19:34:55.725Z,71.99
2019-03-15T19:37:22.099Z,72.38
2019-03-15T19:39:48.431Z,73.07
2019-03-15T19:42:14.864Z,74.39
2019-03-15T19:44:41.405Z,74.88
2019-03-15T19:47:07.724Z,75.25
2019-03-15T19:49:34.047Z,76.41
2019-03-15T19:52:00.373Z,75.89
2019-03-15T19:54:26.953Z,76.07
2019-03-15T19:56:53.369Z,76.42
2019-03-15T19:59:19.670Z,75.43
2019-03-15T20:01:46.096Z,76.25
2019-03-15T20:04:12.517Z,75.97
2019-03-15T20:06:38.962Z,76.84
2019-03-15T20:09:06.352Z,77.81
2019-03-15T20:11:32.721Z,77.51
2019-03-15T20:13:59.299Z,77.41
2019-03-15T20:16:25.911Z,77.80
2019-03-15T20:18:52.236Z,77.65
2019-03-15T20:21:18.548Z,78.83
2019-03-15T20:23:44.879Z,78.00
2019-03-15T20:26:11.207Z,78.87
2019-03-15T20:28:37.507Z,78.51
2019-03-15T20:31:03.985Z,78.60
2019-03-15T20:33:30.268Z,78.80
2019-03-15T20:35:56.776Z,78.28
2019-03-15T20:38:23.163Z,78.46
2019-03-15T20:40:49.605Z,78.08
2019-03-15T20:43:15.901Z,78.34
2019-03-15T20:45:42.335Z,77.76
2019-03-15T20:48:08.748Z,78.49
2019-03-15T20:50:46.163Z,78.32
2019-03-15T20:53:09.793Z,78.43
2019-03-15T20:55:31.958Z,78.30
2019-03-15T20:57:58.528Z,78.57
2019-03-15T21:00:34.721Z,78.64
2019-03-15T21:02:53.343Z,79.43
2019-03-15T21:05:19.749Z,79.53
2019-03-15T21:07:46.071Z,79.43
2019-03-15T21:10:16.761Z,78.69
2019-03-15T21:12:43.506Z,79.45
2019-03-15T21:15:13.170Z,79.96
2019-03-15T21:17:39.469Z,78.87
2019-03-15T21:20:12.145Z,79.14
2019-03-15T21:22:38.450Z,79.07
2019-03-15T21:25:07.709Z,80.44
2019-03-15T21:27:34.250Z,79.69
2019-03-15T21:30:00.863Z,79.75
2019-03-15T21:32:27.220Z,80.71
2019-03-15T21:34:53.838Z,80.79
2019-03-15T21:37:20.140Z,81.48
2019-03-15T21:39:46.574Z,81.02
2019-03-15T21:42:13.056Z,80.85
2019-03-15T21:44:39.367Z,80.75
2019-03-15T21:47:05.661Z,80.54
2019-03-15T21:49:35.189Z,80.44
2019-03-15T21:52:00.575Z,80.79
2019-03-15T21:54:26.912Z,80.78
2019-03-15T21:56:53.205Z,80.53
2019-03-15T21:59:19.528Z,80.53
2019-03-15T22:01:45.867Z,80.53
2019-03-15T22:04:12.521Z,81.80
2019-03-15T22:06:39.153Z,80.89
2019-03-15T22:09:06.287Z,80.69
2019-03-15T22:11:32.607Z,80.04
2019-03-15T22:13:58.941Z,80.51
2019-03-15T22:16:25.235Z,80.56
2019-03-15T22:18:51.818Z,80.50
2019-03-15T22:21:18.448Z,80.18
2019-03-15T22:23:44.875Z,80.49
2019-03-15T22:26:11.441Z,81.01
2019-03-15T22:28:37.834Z,81.69
2019-03-15T22:31:15.845Z,82.58
2019-03-15T22:33:32.378Z,81.83
2019-03-15T22:35:59.089Z,82.51
2019-03-15T22:38:26.812Z,83.97
2019-03-15T22:40:53.279Z,86.36
2019-03-15T22:43:19.574Z,87.33
2019-03-15T22:45:46.079Z,87.64
2019-03-15T22:48:12.614Z,85.63
2019-03-15T22:50:39.128Z,87.12
2019-03-15T22:53:05.446Z,87.28
2019-03-15T22:55:31.655Z,87.32
2019-03-15T22:58:00.224Z,86.79
2019-03-15T23:00:36.606Z,87.85
2019-03-15T23:03:04.208Z,87.58
2019-03-15T23:05:30.635Z,88.66
2019-03-15T23:07:57.170Z,87.55
2019-03-15T23:10:23.718Z,88.28
2019-03-15T23:12:50.073Z,86.50
2019-03-15T23:15:16.659Z,86.55
2019-03-15T23:17:42.947Z,87.94
2019-03-15T23:20:11.603Z,88.29
2019-03-15T23:22:38.094Z,86.80
2019-03-15T23:25:05.707Z,86.15
2019-03-15T23:27:32.180Z,84.63
2019-03-15T23:29:58.670Z,83.97
2019-03-15T23:32:25.102Z,83.95
2019-03-15T23:34:51.651Z,83.40
2019-03-15T23:37:18.053Z,83.29
2019-03-15T23:39:44.603Z,83.35
2019-03-15T23:42:11.052Z,84.06
2019-03-15T23:44:37.356Z,84.03
2019-03-15T23:47:03.872Z,84.62
2019-03-15T23:49:30.270Z,85.53
2019-03-15T23:51:56.577Z,86.01
2019-03-15T23:54:23.239Z,84.73
2019-03-15T23:56:49.735Z,84.57
2019-03-15T23:59:16.133Z,84.81
